Time;durP1;ratioP1;P1;durP2;ratioP2;P2;SDS_P1;SDS_P2;PMS_P1;PMS_P2;Temp;Humidity;BMP_temperature;BMP_pressure;BME280_temperature;BME280_humidity;BME280_pressure;Samples;Min_cycle;Max_cycle;Signal;HPM_P1;HPM_P2
2022/09/21 03:57:38;;;;;;;5.18;3.90;;;;;;;7.88;100.00;100824.41;6513881;26;20249;31
2022/09/21 04:00:41;;;;;;;4.30;3.67;;;;;;;7.85;100.00;100822.03;6519145;27;20066;-91
2022/09/21 04:03:44;;;;;;;5.30;4.15;;;;;;;7.82;100.00;100827.69;6527300;27;34187;-91
2022/09/21 04:06:47;;;;;;;5.10;4.35;;;;;;;7.84;100.00;100828.41;6529984;27;35483;-92
2022/09/21 04:09:50;;;;;;;7.07;4.70;;;;;;;7.87;100.00;100832.63;6507579;27;33852;-91
2022/09/21 04:12:56;;;;;;;4.20;3.80;;;;;;;7.90;100.00;100835.00;6527804;27;33734;-89
2022/09/21 04:15:59;;;;;;;4.95;4.10;;;;;;;7.91;100.00;100825.97;6507943;27;34446;-90
2022/09/21 04:19:03;;;;;;;6.65;4.65;;;;;;;7.92;100.00;100831.16;6530146;27;33905;-90
2022/09/21 04:22:06;;;;;;;6.47;3.87;;;;;;;7.93;100.00;100832.88;6545532;27;35343;-90
2022/09/21 04:25:29;;;;;;;7.05;3.83;;;;;;;7.99;100.00;100830.59;6549731;26;36685;-90
2022/09/21 04:28:35;;;;;;;5.12;4.12;;;;;;;8.01;100.00;100831.25;6619613;26;33608;-91
2022/09/21 04:31:38;;;;;;;6.30;4.37;;;;;;;8.04;100.00;100833.63;6619363;26;33881;-91
2022/09/21 04:34:41;;;;;;;5.53;3.90;;;;;;;8.09;100.00;100842.09;6637987;26;35453;-89
2022/09/21 04:37:44;;;;;;;5.55;4.32;;;;;;;8.08;100.00;100837.72;6668287;26;34896;-91
2022/09/21 04:40:55;;;;;;;6.25;4.07;;;;;;;8.07;100.00;100841.38;6664576;26;35281;-89
2022/09/21 04:43:57;;;;;;;6.32;4.43;;;;;;;8.09;100.00;100850.13;6664921;26;33958;-89
2022/09/21 04:47:00;;;;;;;4.78;4.18;;;;;;;8.11;100.00;100858.88;6645462;26;32142;-89
2022/09/21 04:50:04;;;;;;;5.40;4.60;;;;;;;8.05;100.00;100862.16;6664213;26;34383;-89
2022/09/21 04:53:07;;;;;;;5.28;4.05;;;;;;;8.04;100.00;100858.59;6669569;26;34215;-89
2022/09/21 04:56:13;;;;;;;4.97;4.07;;;;;;;7.99;100.00;100860.06;6679185;26;35416;-90
2022/09/21 04:59:16;;;;;;;5.28;4.28;;;;;;;7.95;100.00;100865.72;6669930;26;34364;-89
2022/09/21 05:02:20;;;;;;;6.40;4.70;;;;;;;7.92;100.00;100868.69;6636152;26;34677;-89
2022/09/21 05:05:22;;;;;;;7.50;4.35;;;;;;;7.99;100.00;100860.91;6635771;26;33682;-89
2022/09/21 05:11:47;;;;;;;5.90;4.47;;;;;;;8.16;100.00;100861.94;6639190;26;33546;-89
2022/09/21 05:14:50;;;;;;;7.47;5.03;;;;;;;8.28;100.00;100858.06;6641316;26;34032;-89
2022/09/21 05:17:53;;;;;;;5.00;4.35;;;;;;;8.36;100.00;100863.50;6642842;26;34190;-89
2022/09/21 05:20:57;;;;;;;5.50;3.97;;;;;;;8.50;100.00;100870.22;6638582;26;33967;-90
2022/09/21 05:24:00;;;;;;;6.18;4.57;;;;;;;8.51;100.00;100871.94;6639830;26;34016;-90
2022/09/21 05:27:03;;;;;;;5.12;4.20;;;;;;;8.48;100.00;100871.34;6629733;26;33467;-90
2022/09/21 05:30:07;;;;;;;5.20;4.30;;;;;;;8.50;100.00;100877.44;6635485;26;33055;-90
2022/09/21 05:33:15;;;;;;;5.70;3.95;;;;;;;8.62;100.00;100876.19;6671531;26;33713;-91
2022/09/21 05:36:51;;;;;;;5.03;4.07;;;;;;;8.80;100.00;100876.19;6673057;26;34332;-91
2022/09/21 05:39:54;;;;;;;6.05;4.22;;;;;;;8.95;100.00;100873.81;6673884;26;35091;-89
2022/09/21 05:42:58;;;;;;;5.32;4.25;;;;;;;9.12;100.00;100885.53;6664418;26;33965;-90
2022/09/21 05:46:10;;;;;;;6.18;4.55;;;;;;;9.38;100.00;100878.34;6644052;26;32149;-89
2022/09/21 05:49:20;;;;;;;8.48;4.07;;;;;;;9.47;99.06;100887.28;6664593;26;33745;-90
2022/09/21 05:52:41;;;;;;;8.23;4.60;;;;;;;9.57;98.63;100885.38;6663764;26;34223;-90
2022/09/21 05:55:47;;;;;;;7.20;4.22;;;;;;;9.60;98.91;100885.03;6663585;26;34440;-89
2022/09/21 05:59:22;;;;;;;7.03;5.18;;;;;;;9.69;98.55;100884.06;6662952;26;34204;-89
2022/09/21 06:02:46;;;;;;;6.65;4.60;;;;;;;9.75;98.16;100885.28;6663435;26;34342;-89
2022/09/21 06:05:49;;;;;;;6.50;4.40;;;;;;;9.72;96.65;100882.91;6664139;26;33961;-89
2022/09/21 06:08:51;;;;;;;5.18;4.12;;;;;;;9.78;97.03;100884.97;6664727;26;34468;-89
2022/09/21 06:11:54;;;;;;;6.62;4.70;;;;;;;9.64;96.86;100891.78;6660377;26;34782;-89
2022/09/21 06:14:57;;;;;;;6.65;4.90;;;;;;;9.52;97.39;100901.13;6663613;26;34510;-89
2022/09/21 06:18:00;;;;;;;7.00;4.72;;;;;;;9.46;98.26;100899.91;6643133;26;32329;-89
2022/09/21 06:21:02;;;;;;;7.15;4.93;;;;;;;9.51;99.45;100902.13;6663390;26;34343;-89
2022/09/21 06:24:05;;;;;;;7.15;5.07;;;;;;;9.61;98.45;100902.00;6663014;26;33643;-89
2022/09/21 06:27:08;;;;;;;7.22;5.25;;;;;;;9.65;98.74;100895.31;6664241;26;34300;-89
2022/09/21 06:30:11;;;;;;;10.07;6.10;;;;;;;9.77;97.71;100897.56;6642978;26;33644;-92
2022/09/21 06:33:19;;;;;;;6.93;4.82;;;;;;;9.79;97.61;100910.84;6664326;26;35653;-92
2022/09/21 06:36:22;;;;;;;7.93;5.50;;;;;;;9.82;97.15;100909.69;6662737;26;34010;-90
2022/09/21 06:39:25;;;;;;;8.35;5.70;;;;;;;9.91;97.02;100906.88;6664270;26;34075;-90
2022/09/21 06:42:27;;;;;;;8.05;5.25;;;;;;;9.94;96.29;100911.94;6664159;26;33912;-89
2022/09/21 06:45:30;;;;;;;8.45;5.43;;;;;;;10.19;96.25;100912.88;6663361;26;33736;-90
2022/09/21 06:48:34;;;;;;;7.78;5.47;;;;;;;10.27;94.44;100908.59;6664007;26;34683;-89
2022/09/21 06:51:36;;;;;;;7.18;4.95;;;;;;;10.47;92.79;100918.09;6663769;26;33901;-89
2022/09/21 06:54:41;;;;;;;7.07;4.80;;;;;;;10.52;92.85;100910.34;6663735;26;33634;-89
2022/09/21 06:57:43;;;;;;;7.35;5.50;;;;;;;10.74;91.71;100916.13;6642876;26;34042;-90
2022/09/21 07:00:46;;;;;;;6.95;5.05;;;;;;;10.96;90.62;100907.38;6644150;26;33982;-89
2022/09/21 07:03:50;;;;;;;5.22;4.53;;;;;;;11.09;89.86;100901.50;6663901;26;34826;-89
2022/09/21 07:06:53;;;;;;;5.70;4.25;;;;;;;11.25;87.66;100904.19;6666651;26;33699;-89
2022/09/21 07:10:00;;;;;;;8.07;5.12;;;;;;;11.48;87.98;100915.09;6668234;26;34234;-89
2022/09/21 07:13:17;;;;;;;4.90;3.87;;;;;;;11.55;86.88;100910.72;6670480;26;33905;-90
2022/09/21 07:16:20;;;;;;;5.28;4.37;;;;;;;11.65;85.80;100913.22;6667282;26;34198;-89
2022/09/21 07:19:23;;;;;;;4.72;3.90;;;;;;;11.88;85.29;100910.69;6669014;26;34385;-89
2022/09/21 07:22:27;;;;;;;4.45;3.58;;;;;;;12.12;83.89;100915.16;6638984;26;33124;-89
2022/09/21 07:25:30;;;;;;;4.47;4.05;;;;;;;12.21;82.29;100897.06;6664998;26;34514;-90
2022/09/21 07:28:33;;;;;;;5.90;3.80;;;;;;;12.31;82.36;100911.16;6638295;26;33332;-89
2022/09/21 07:31:37;;;;;;;4.53;3.47;;;;;;;12.56;80.80;100911.91;6664470;26;34199;-90
2022/09/21 07:34:39;;;;;;;6.43;3.78;;;;;;;12.75;80.09;100916.00;6645164;26;33633;-90
2022/09/21 07:37:42;;;;;;;4.65;3.83;;;;;;;12.89;78.22;100919.78;6667051;26;34359;-89
2022/09/21 07:40:45;;;;;;;8.73;3.92;;;;;;;12.98;77.86;100920.56;6665234;26;35425;-90
2022/09/21 07:43:48;;;;;;;4.80;3.80;;;;;;;12.96;77.94;100917.19;6667672;26;34621;-91
2022/09/21 07:46:50;;;;;;;4.37;3.50;;;;;;;13.09;77.32;100915.59;6663705;26;35038;-90
2022/09/21 07:49:54;;;;;;;4.30;3.45;;;;;;;13.03;77.56;100921.72;6663712;26;33568;-91
2022/09/21 07:52:58;;;;;;;4.57;3.75;;;;;;;13.07;77.41;100924.87;6664073;26;34487;-90
2022/09/21 07:56:03;;;;;;;4.82;3.97;;;;;;;13.14;77.26;100924.00;6643936;26;32973;-90
2022/09/21 07:59:06;;;;;;;5.62;3.70;;;;;;;13.20;76.83;100917.03;6643839;26;32583;-91
2022/09/21 08:02:08;;;;;;;4.37;3.67;;;;;;;13.42;77.00;100917.19;6663631;26;33700;-90
2022/09/21 08:05:11;;;;;;;3.97;3.60;;;;;;;13.58;75.10;100922.47;6663388;26;34600;-90
2022/09/21 08:08:15;;;;;;;4.57;3.67;;;;;;;13.64;74.87;100915.47;6664409;26;34045;-90
2022/09/21 08:11:21;;;;;;;4.05;3.62;;;;;;;13.76;74.17;100916.69;6645243;26;32729;-90
2022/09/21 08:14:23;;;;;;;4.00;3.40;;;;;;;13.96;73.96;100915.13;6643422;26;32301;-87
2022/09/21 08:17:28;;;;;;;3.83;3.35;;;;;;;13.96;72.04;100915.13;6662528;26;33595;-90
2022/09/21 08:20:34;;;;;;;4.70;3.50;;;;;;;14.12;72.68;100918.66;6662376;26;34001;-90
2022/09/21 08:23:48;;;;;;;3.78;3.20;;;;;;;14.26;73.06;100913.22;6663959;26;35445;-93
2022/09/21 08:26:51;;;;;;;3.83;3.05;;;;;;;14.42;70.66;100908.63;6663402;26;34749;-93
2022/09/21 08:29:54;;;;;;;4.37;2.92;;;;;;;14.70;69.92;100917.72;6642820;26;34344;-94
2022/09/21 08:32:57;;;;;;;3.03;2.80;;;;;;;14.74;69.76;100918.19;6642230;26;33187;-90
2022/09/21 08:36:00;;;;;;;3.05;2.75;;;;;;;14.60;69.36;100925.34;6662130;26;34461;-90
2022/09/21 08:39:06;;;;;;;3.53;2.97;;;;;;;14.55;70.37;100918.81;6662522;26;33821;-90
2022/09/21 08:42:23;;;;;;;3.40;3.10;;;;;;;14.43;69.65;100921.16;6642441;26;32300;-90
2022/09/21 08:45:34;;;;;;;3.05;2.75;;;;;;;14.65;70.73;100927.47;6663261;26;33661;-90
2022/09/21 08:48:45;;;;;;;3.20;2.70;;;;;;;14.96;68.27;100914.47;6642458;26;33064;-90
2022/09/21 08:51:56;;;;;;;3.10;2.80;;;;;;;15.00;67.85;100919.50;6662067;26;34838;-90
2022/09/21 08:55:06;;;;;;;5.90;2.87;;;;;;;15.23;67.07;100916.59;6660755;26;34565;-90
2022/09/21 08:58:21;;;;;;;4.03;2.90;;;;;;;15.39;66.11;100919.88;6661943;26;33481;-90
2022/09/21 09:01:42;;;;;;;4.35;3.00;;;;;;;15.29;65.66;100918.50;6641980;26;35397;-90
2022/09/21 09:05:18;;;;;;;3.75;3.05;;;;;;;15.37;66.77;100918.37;6661271;26;34489;-90
2022/09/21 09:08:21;;;;;;;3.85;2.55;;;;;;;15.57;65.61;100911.22;6656164;26;33973;-90
2022/09/21 09:11:36;;;;;;;3.47;2.70;;;;;;;15.83;64.61;100910.63;6665000;26;33903;-90
2022/09/21 09:14:59;;;;;;;5.60;3.03;;;;;;;15.85;62.29;100919.41;6664075;26;34354;-90
2022/09/21 09:18:17;;;;;;;3.87;2.60;;;;;;;15.73;63.17;100920.97;6647428;26;32870;-90
2022/09/21 09:21:30;;;;;;;2.72;2.37;;;;;;;15.54;64.02;100917.06;6661651;26;33581;-90
2022/09/21 09:24:40;;;;;;;3.67;2.60;;;;;;;15.57;65.01;100915.84;6661721;26;34294;-90
2022/09/21 09:27:45;;;;;;;6.70;2.70;;;;;;;15.69;63.75;100917.00;6662249;26;33963;-90
2022/09/21 09:31:03;;;;;;;3.70;2.53;;;;;;;15.87;63.28;100911.87;6642287;26;32662;-91
2022/09/21 09:34:30;;;;;;;3.67;2.42;;;;;;;15.90;62.21;100918.78;6647943;26;33624;-90
2022/09/21 09:37:39;;;;;;;3.53;2.50;;;;;;;15.72;63.22;100911.16;6671553;26;35421;-89
2022/09/21 09:40:54;;;;;;;2.75;2.50;;;;;;;15.89;62.91;100913.56;6682229;26;35657;-89
2022/09/21 09:44:06;;;;;;;2.42;2.20;;;;;;;15.91;61.65;100914.19;6666255;26;35445;-89
2022/09/21 09:47:40;;;;;;;3.17;2.70;;;;;;;16.03;61.62;100918.06;6662832;26;33587;-89
2022/09/21 09:50:43;;;;;;;3.05;2.72;;;;;;;15.92;62.23;100911.28;6641968;26;33558;-89
2022/09/21 09:53:45;;;;;;;2.83;2.50;;;;;;;16.22;62.00;100909.16;6647380;26;32588;-88
2022/09/21 09:56:48;;;;;;;7.03;2.60;;;;;;;16.05;61.69;100913.22;6666535;26;34042;-89
2022/09/21 09:59:54;;;;;;;2.78;2.58;;;;;;;16.03;61.97;100915.34;6652721;26;33201;-91
2022/09/21 10:02:58;;;;;;;2.45;2.25;;;;;;;15.93;61.49;100904.81;6662719;26;34049;-89
2022/09/21 10:06:01;;;;;;;2.60;2.30;;;;;;;16.14;61.54;100893.00;6663382;26;33703;-89
2022/09/21 10:09:25;;;;;;;2.15;1.95;;;;;;;16.29;60.58;100895.59;6642440;26;32699;-88
2022/09/21 10:12:29;;;;;;;2.05;1.92;;;;;;;16.66;58.73;100891.53;6663817;26;34540;-88
2022/09/21 10:15:32;;;;;;;2.85;2.15;;;;;;;16.75;58.50;100900.34;6665427;26;35497;-88
2022/09/21 10:18:57;;;;;;;2.65;2.17;;;;;;;16.94;58.30;100896.88;6665885;26;34408;-88
2022/09/21 10:22:03;;;;;;;2.22;2.03;;;;;;;17.04;58.38;100896.44;6671393;26;34685;-88
2022/09/21 10:25:16;;;;;;;2.17;1.70;;;;;;;17.26;58.52;100890.78;6678754;26;34023;-88
2022/09/21 10:28:22;;;;;;;1.90;1.80;;;;;;;17.56;57.31;100885.78;6667168;26;34846;-89
2022/09/21 10:31:29;;;;;;;2.85;1.70;;;;;;;17.64;54.66;100885.56;6664089;26;34795;-88
2022/09/21 10:34:34;;;;;;;2.62;1.80;;;;;;;17.69;55.08;100883.84;6664183;26;34078;-89
2022/09/21 10:37:41;;;;;;;2.08;1.75;;;;;;;18.03;52.58;100881.09;6663182;26;33981;-88
2022/09/21 10:40:46;;;;;;;2.15;1.48;;;;;;;18.05;53.52;100877.09;6664069;26;33649;-88
2022/09/21 10:43:49;;;;;;;3.65;1.75;;;;;;;17.66;54.67;100878.81;6642487;26;33796;-88
2022/09/21 10:46:53;;;;;;;2.65;1.67;;;;;;;17.41;55.48;100884.13;6664675;26;34001;-88
2022/09/21 10:50:04;;;;;;;1.65;1.40;;;;;;;17.90;54.12;100881.94;6663304;26;34721;-88
2022/09/21 10:53:12;;;;;;;2.70;1.50;;;;;;;18.79;50.48;100864.78;6662856;26;34258;-88
2022/09/21 10:56:19;;;;;;;1.37;1.27;;;;;;;18.48;49.96;100868.28;6661340;26;32909;-91
2022/09/21 10:59:27;;;;;;;2.20;1.15;;;;;;;18.43;51.05;100878.19;6648372;26;33018;-90
2022/09/21 11:02:30;;;;;;;1.62;1.52;;;;;;;19.00;48.85;100874.50;6647539;26;33757;-89
2022/09/21 11:05:37;;;;;;;1.40;1.30;;;;;;;19.86;46.15;100870.19;6642578;26;34052;-89
2022/09/21 11:09:00;;;;;;;1.50;1.37;;;;;;;20.57;44.13;100868.69;6669639;26;34154;-89
2022/09/21 11:12:34;;;;;;;1.05;1.05;;;;;;;19.60;44.40;100867.72;6670828;26;34236;-89
2022/09/21 11:15:49;;;;;;;1.30;1.20;;;;;;;19.55;43.85;100854.72;6646266;26;34776;-88
2022/09/21 11:19:20;;;;;;;2.42;1.35;;;;;;;19.59;43.55;100861.38;6648944;26;33009;-88
2022/09/21 11:22:50;;;;;;;2.95;1.30;;;;;;;19.13;46.88;100862.66;6666125;26;34055;-88
2022/09/21 11:26:13;;;;;;;1.10;1.02;;;;;;;18.79;45.80;100859.34;6665478;26;33538;-88
2022/09/21 11:29:48;;;;;;;1.23;1.12;;;;;;;18.41;46.24;100850.31;6673391;26;34017;-89
2022/09/21 11:33:03;;;;;;;1.20;1.10;;;;;;;18.82;46.09;100849.06;6665063;26;34959;-88
2022/09/21 11:36:21;;;;;;;1.17;1.08;;;;;;;19.24;46.08;100842.81;6663968;26;34687;-88
2022/09/21 11:39:46;;;;;;;0.90;0.90;;;;;;;21.37;41.24;100845.56;6665253;26;34681;-87
2022/09/21 11:42:51;;;;;;;1.02;1.00;;;;;;;24.10;36.89;100823.59;6663165;26;33502;-86
2022/09/21 11:46:07;;;;;;;1.00;0.90;;;;;;;25.89;32.18;100825.16;6663031;26;35704;-87
2022/09/21 11:49:36;;;;;;;0.52;0.52;;;;;;;25.60;32.33;100832.97;6663384;26;33905;-88
2022/09/21 11:52:48;;;;;;;0.77;0.75;;;;;;;27.20;28.95;100824.88;6643617;26;33810;-89
2022/09/21 11:55:54;;;;;;;0.52;0.52;;;;;;;28.93;26.47;100817.78;6664252;26;34112;-88
2022/09/21 11:59:12;;;;;;;0.55;0.55;;;;;;;30.41;23.43;100815.31;6663655;26;34337;-91
2022/09/21 12:02:29;;;;;;;1.05;0.60;;;;;;;27.48;27.79;100814.34;6663036;26;33779;-87
2022/09/21 12:05:44;;;;;;;0.70;0.65;;;;;;;26.64;28.92;100811.03;6641145;26;32545;-87
2022/09/21 12:09:07;;;;;;;0.40;0.40;;;;;;;29.25;25.62;100798.91;6663606;26;34742;-88
2022/09/21 12:12:18;;;;;;;0.77;0.68;;;;;;;30.08;23.93;100788.56;6644008;26;33794;-89
2022/09/21 12:15:56;;;;;;;0.60;0.43;;;;;;;30.22;23.99;100787.53;6665221;26;33652;-88
2022/09/21 12:19:23;;;;;;;0.43;0.43;;;;;;;30.36;23.08;100792.34;6647849;26;33918;-89
2022/09/21 12:22:32;;;;;;;0.95;0.40;;;;;;;31.80;21.37;100786.75;6663539;26;34077;-89
2022/09/21 12:25:44;;;;;;;0.37;0.30;;;;;;;34.06;20.32;100781.94;6662178;26;33964;-89
2022/09/21 12:28:59;;;;;;;0.60;0.50;;;;;;;34.13;20.65;100781.44;6642577;26;33912;-89
2022/09/21 12:32:48;;;;;;;0.50;0.50;;;;;;;33.29;20.64;100784.09;6636715;26;32247;31
2022/09/21 12:35:59;;;;;;;0.70;0.52;;;;;;;32.60;21.13;100775.28;6524911;27;33817;-89
2022/09/21 12:39:14;;;;;;;0.70;0.70;;;;;;;28.66;25.24;100786.94;6525368;27;33971;-89
2022/09/21 12:42:22;;;;;;;0.70;0.68;;;;;;;26.68;29.08;100790.88;6507268;27;32113;-89
2022/09/21 12:45:37;;;;;;;1.70;0.40;;;;;;;26.97;28.01;100781.19;6524655;27;34346;-86
2022/09/21 12:48:41;;;;;;;0.82;0.57;;;;;;;26.14;27.93;100783.00;6505812;27;33134;-87
2022/09/21 12:51:53;;;;;;;0.93;0.73;;;;;;;26.58;28.32;100790.03;6527003;27;34291;-87
2022/09/21 12:55:20;;;;;;;1.42;0.70;;;;;;;27.57;26.48;100790.53;6508226;27;32885;-88
2022/09/21 12:58:54;;;;;;;0.57;0.55;;;;;;;24.51;31.53;100793.81;6529209;27;33361;-88
2022/09/21 13:02:18;;;;;;;0.90;0.90;;;;;;;23.01;33.66;100789.34;6528362;27;33681;-89
2022/09/21 13:05:27;;;;;;;1.27;0.60;;;;;;;25.15;30.97;100783.88;6528614;27;34033;-88
2022/09/21 13:08:36;;;;;;;1.73;0.90;;;;;;;26.09;29.95;100783.03;6534715;27;34913;-88
2022/09/21 13:11:59;;;;;;;1.37;1.00;;;;;;;28.74;25.74;100785.50;6553476;27;35484;-88
2022/09/21 13:15:12;;;;;;;0.68;0.68;;;;;;;30.11;24.13;100769.34;6565742;27;35220;-88
2022/09/21 13:18:23;;;;;;;0.82;0.70;;;;;;;29.68;23.88;100762.97;6538587;27;33220;-88
2022/09/21 13:21:29;;;;;;;1.98;0.60;;;;;;;30.35;23.75;100752.63;6552988;27;34136;-88
2022/09/21 13:24:32;;;;;;;0.62;0.62;;;;;;;31.28;22.97;100751.91;6553211;27;35065;-88
2022/09/21 13:27:59;;;;;;;0.68;0.68;;;;;;;30.95;22.53;100754.72;6553340;27;34212;-88
2022/09/21 13:31:04;;;;;;;0.60;0.60;;;;;;;31.15;22.51;100754.34;6551285;27;34120;-88
2022/09/21 13:34:38;;;;;;;0.50;0.50;;;;;;;30.81;22.30;100746.34;6531332;27;33286;-88
2022/09/21 13:37:41;;;;;;;0.75;0.60;;;;;;;31.80;22.26;100753.34;6551426;27;34745;-89
2022/09/21 13:40:55;;;;;;;1.27;0.57;;;;;;;32.55;20.94;100753.09;6532465;27;32710;-89
2022/09/21 13:43:58;;;;;;;0.47;0.40;;;;;;;32.12;21.72;100759.06;6551959;27;34719;-88
2022/09/21 13:47:07;;;;;;;0.98;0.40;;;;;;;33.08;20.75;100755.91;6551418;27;34445;-89
2022/09/21 13:50:22;;;;;;;0.55;0.55;;;;;;;32.65;20.83;100748.09;6552835;27;34303;-89
2022/09/21 13:53:34;;;;;;;1.45;0.40;;;;;;;31.77;21.63;100745.63;6532226;27;32320;-89
2022/09/21 13:56:37;;;;;;;0.70;0.55;;;;;;;32.03;21.35;100743.13;6552010;27;33989;-89
2022/09/21 13:59:42;;;;;;;1.20;0.35;;;;;;;30.57;22.89;100742.81;6551495;27;34146;-90
2022/09/21 14:02:56;;;;;;;0.60;0.60;;;;;;;30.47;22.96;100743.81;6552258;27;35352;-89
2022/09/21 14:06:14;;;;;;;1.52;0.68;;;;;;;25.84;28.17;100758.91;6532793;27;32936;-89
2022/09/21 14:09:22;;;;;;;;;;;;;;;23.01;31.88;100753.62;6552729;27;34016;-89
2022/09/21 14:12:31;;;;;;;0.68;0.60;;;;;;;22.56;32.71;100756.44;6552486;27;35147;-90
2022/09/21 14:15:38;;;;;;;;;;;;;;;22.51;33.19;100751.69;6532330;27;33309;-90
2022/09/21 14:18:41;;;;;;;0.50;0.50;;;;;;;21.10;35.39;100754.81;6531718;27;34863;-89
2022/09/21 14:22:02;;;;;;;0.77;0.60;;;;;;;20.07;37.66;100761.47;6551163;27;33720;-89
2022/09/21 14:25:28;;;;;;;0.70;0.70;;;;;;;19.28;39.80;100760.50;6551325;27;33939;-89
2022/09/21 14:28:49;;;;;;;0.90;0.90;;;;;;;19.18;40.77;100758.25;6532328;27;33051;-93
2022/09/21 14:31:56;;;;;;;1.50;1.10;;;;;;;18.54;42.28;100761.09;6532628;27;33474;-90
2022/09/21 14:35:09;;;;;;;0.95;0.95;;;;;;;18.30;43.18;100762.72;6551976;27;35811;-89
2022/09/21 14:38:28;;;;;;;0.80;0.80;;;;;;;18.19;43.95;100763.41;6551578;27;34480;-89
2022/09/21 14:41:38;;;;;;;2.37;1.33;;;;;;;17.74;44.28;100768.84;6551087;27;34011;-89
2022/09/21 14:44:42;;;;;;;0.90;0.90;;;;;;;17.67;44.50;100763.44;6551462;27;34120;-89
2022/09/21 14:48:05;;;;;;;1.42;0.82;;;;;;;17.42;44.92;100757.84;6550842;27;33972;-89
2022/09/21 14:51:43;;;;;;;1.05;0.80;;;;;;;17.27;45.34;100757.25;6551198;27;34071;-89
2022/09/21 14:55:26;;;;;;;0.98;0.75;;;;;;;17.31;45.10;100760.38;6550826;27;34357;-88
2022/09/21 14:58:35;;;;;;;0.82;0.82;;;;;;;17.29;45.21;100754.34;6534718;27;32365;-91
2022/09/21 15:01:41;;;;;;;2.43;1.37;;;;;;;17.22;46.38;100757.88;6539023;27;32641;-89
2022/09/21 15:05:03;;;;;;;0.77;0.77;;;;;;;17.28;45.79;100750.75;6557202;27;34566;-89
2022/09/21 15:12:10;;;;;;;2.37;1.00;;;;;;;17.34;46.72;100762.69;6480337;27;32313;-89
2022/09/21 15:15:35;;;;;;;2.37;1.12;;;;;;;17.17;47.39;100765.00;6497797;27;33715;-89
2022/09/21 15:18:44;;;;;;;1.00;1.00;;;;;;;16.93;47.10;100774.66;6555991;27;34060;-89
2022/09/21 15:21:50;;;;;;;1.55;1.20;;;;;;;16.73;47.68;100769.19;6553064;27;34202;-89
2022/09/21 15:24:58;;;;;;;1.00;0.93;;;;;;;16.59;47.87;100775.69;6552078;27;34786;-89
2022/09/21 15:28:01;;;;;;;1.35;1.05;;;;;;;16.45;48.77;100775.66;6532362;27;34000;-89
2022/09/21 15:31:06;;;;;;;5.18;1.25;;;;;;;16.34;49.00;100776.25;6552423;27;33888;-89
2022/09/21 15:34:12;;;;;;;2.10;1.20;;;;;;;16.25;49.34;100778.31;6552671;27;33857;-90
2022/09/21 15:37:16;;;;;;;0.77;0.77;;;;;;;16.12;49.05;100772.87;6532885;27;33112;-92
2022/09/21 15:40:22;;;;;;;1.17;1.08;;;;;;;16.14;48.39;100778.91;6552677;27;33641;-92
2022/09/21 15:43:25;;;;;;;1.30;1.20;;;;;;;16.02;48.50;100781.38;6554035;27;35425;-90
2022/09/21 15:46:28;;;;;;;2.60;1.20;;;;;;;16.14;48.16;100783.53;6554581;27;33999;-90
2022/09/21 15:49:33;;;;;;;1.30;1.20;;;;;;;16.13;48.13;100784.56;6554938;27;33725;-89
2022/09/21 15:52:42;;;;;;;1.50;1.40;;;;;;;16.31;48.23;100798.41;6555029;27;33677;-89
2022/09/21 15:55:46;;;;;;;1.40;1.30;;;;;;;16.43;47.37;100788.59;6556540;27;34146;-89
2022/09/21 15:58:49;;;;;;;3.05;1.30;;;;;;;16.30;47.11;100791.31;6562006;27;33668;-89
